METAR Data
IDs: Format: Raw Decoded Include TAF

Data at: 2210 UTC 24 Mar 2019

KT35 242155Z AUTO 21011G14KT 10SM BKN041 27/17 A3000 RMK AO2 T02740171
KT35 242135Z AUTO 18008KT 10SM SCT041 SCT047 27/17 A3001 RMK AO2 T02670173
KT35 242115Z AUTO 20007G15KT 10SM SCT038 SCT044 26/17 A3001 RMK AO2 T02630168
KT35 242055Z AUTO 22011KT 10SM CLR 26/17 A3002 RMK AO2 T02620170
KT35 242035Z AUTO 21010G16KT 10SM SCT045 26/18 A3003 RMK AO2 T02640175
KT35 242015Z AUTO 22008G16KT 10SM BKN045 26/17 A3003 RMK AO2 T02550172
KT35 241955Z AUTO 20009KT 10SM SCT031 SCT041 OVC047 26/18 A3004 RMK AO2 T02610176
KT35 241935Z AUTO 22009KT 10SM BKN031 OVC041 25/17 A3005 RMK AO2 T02460174
KT35 241915Z AUTO 24009KT 10SM BKN031 OVC039 25/17 A3005 RMK AO2 T02450173
KT35 241855Z AUTO 23007KT 10SM BKN029 OVC039 25/18 A3006 RMK AO2 T02510177
KT35 241835Z AUTO 21010G16KT 10SM BKN029 OVC037 25/18 A3007 RMK AO2 T02460176
KT35 241815Z AUTO 23010G14KT 10SM OVC027 24/17 A3007 RMK AO2 T02410173
KT35 241755Z AUTO 20009G16KT 170V240 10SM BKN026 OVC031 23/17 A3008 RMK AO2 T02320174 10233 20175
KT35 241735Z AUTO 22011G15KT 10SM OVC026 23/17 A3009 RMK AO2 T02320173
KT35 241715Z AUTO 22009KT 10SM BKN023 OVC027 23/18 A3009 RMK AO2 T02260176
KT35 241655Z AUTO 21010KT 10SM OVC021 22/17 A3010 RMK AO2 T02160170
KT35 241635Z AUTO 22009KT 10SM OVC021 21/17 A3010 RMK AO2 T02130170
KT35 241615Z AUTO 21011G14KT 10SM OVC019 21/18 A3011 RMK AO2 T02120175
KT35 241555Z AUTO 20006KT 10SM BKN018 OVC023 21/17 A3010 RMK AO2 T02080174
KT35 241535Z AUTO 20007KT 10SM OVC015 20/18 A3011 RMK AO2 T02040175
KT35 241515Z AUTO 18007KT 10SM BKN011 OVC024 20/18 A3011 RMK AO2 T02010175
KT35 241455Z AUTO 18007KT 10SM SCT009 OVC024 20/17 A3011 RMK AO2 T01970174
KT35 241435Z AUTO 19006KT 10SM SCT009 OVC024 19/17 A3011 RMK AO2 T01920173
KT35 241415Z AUTO 18006KT 10SM SCT011 OVC022 19/17 A3010 RMK AO2 T01880170
KT35 241355Z AUTO 18007KT 10SM OVC022 19/17 A3009 RMK AO2 T01850170
KT35 241335Z AUTO 18007KT 10SM OVC024 18/17 A3009 RMK AO2 T01830168
KT35 241315Z AUTO 18007KT 10SM OVC024 18/17 A3008 RMK AO2 T01800167
KT35 241255Z AUTO 17007KT 10SM OVC026 18/17 A3008 RMK AO2 T01800166
KT35 241235Z AUTO 18007KT 10SM SCT008 OVC028 18/17 A3007 RMK AO2 T01770165
KT35 241215Z AUTO 16006KT 10SM SCT008 OVC030 18/17 A3007 RMK AO2 T01750165
KT35 241155Z AUTO 16005KT 10SM OVC008 18/17 A3007 RMK AO2 T01770165 10187 20176
KT35 241135Z AUTO 17007KT 10SM OVC010 18/16 A3006 RMK AO2 T01770163
KT35 241115Z AUTO 16007KT 10SM OVC010 18/16 A3006 RMK AO2 T01770162
KT35 241055Z AUTO 15006KT 10SM BKN013 BKN031 OVC037 18/16 A3006 RMK AO2 T01770162
KT35 241035Z AUTO 17006KT 10SM SCT012 BKN027 OVC038 18/16 A3006 RMK AO2 T01790162
KT35 241015Z AUTO 17006KT 10SM SCT012 OVC025 18/16 A3006 RMK AO2 T01800161
KT35 240955Z AUTO 17005KT 10SM BKN012 OVC027 18/16 A3006 RMK AO2 T01810161
KT35 240935Z AUTO 15005KT 10SM OVC012 18/16 A3006 RMK AO2 T01810160
KT35 240915Z AUTO 17005KT 10SM BKN012 OVC021 18/16 A3006 RMK AO2 T01820161
KT35 240855Z AUTO 17005KT 10SM BKN025 OVC032 18/16 A3006 RMK AO2 T01810160
KT35 240835Z AUTO 17004KT 10SM OVC032 18/16 A3007 RMK AO2 T01810160
KT35 240815Z AUTO 17005KT 10SM OVC028 18/16 A3007 RMK AO2 T01810160
KT35 240755Z AUTO 18007KT 10SM OVC026 18/16 A3007 RMK AO2 T01810158
KT35 240735Z AUTO 18005KT 10SM SCT015 OVC026 18/16 A3007 RMK AO2 T01800158
KT35 240715Z AUTO 17008KT 10SM BKN015 OVC026 18/16 A3007 RMK AO2 T01800157
KT35 240655Z AUTO 17007KT 10SM OVC015 18/16 A3007 RMK AO2 T01830156
KT35 240635Z AUTO 17005KT 10SM OVC015 19/16 A3008 RMK AO2 T01850155
KT35 240615Z AUTO 15003KT 10SM OVC017 19/16 A3009 RMK AO2 T01850155
KT35 240555Z AUTO 16007KT 10SM BKN017 OVC030 19/16 A3008 RMK AO2 T01870155 10223 20187 402360148
KT35 240535Z AUTO 15006KT 10SM BKN032 OVC038 19/15 A3008 RMK AO2 T01880154
KT35 240515Z AUTO 17008G20KT 10SM SCT032 OVC038 19/16 A3007 RMK AO2 T01910155
KT35 240455Z AUTO 17011G17KT 10SM OVC040 19/16 A3007 RMK AO2 T01930155
KT35 240435Z AUTO 17011G18KT 10SM BKN042 19/15 A3006 RMK AO2 T01940153
KT35 240415Z AUTO 17011G19KT 10SM SCT042 19/15 A3006 RMK AO2 T01930152
KT35 240355Z AUTO 18014G20KT 10SM CLR 20/15 A3007 RMK AO2 T01950152
KT35 240335Z AUTO 17014G19KT 10SM CLR 20/15 A3007 RMK AO2 T01980151
KT35 240315Z AUTO 17009G18KT 10SM CLR 20/15 A3006 RMK AO2 T02010150
KT35 240255Z AUTO 17013G17KT 10SM SCT048 SCT095 20/15 A3006 RMK AO2 T02040150
KT35 240235Z AUTO 17010KT 10SM BKN050 OVC095 21/15 A3006 RMK AO2 T02070150
KT35 240215Z AUTO 17012G19KT 10SM OVC048 21/15 A3006 RMK AO2 T02120150
KT35 240155Z AUTO 16008KT 10SM OVC050 21/15 A3006 RMK AO2 T02120150
KT35 240135Z AUTO 16007KT 10SM SCT040 OVC050 21/15 A3005 RMK AO2 T02120150
KT35 240115Z AUTO 16008G14KT 10SM SCT042 OVC050 22/15 A3004 RMK AO2 T02150150
KT35 240055Z AUTO 15007KT 10SM SCT042 BKN050 OVC060 22/15 A3003 RMK AO2 T02150150
KT35 240035Z AUTO 15008KT 10SM BKN050 BKN090 22/15 A3003 RMK AO2 T02160150
KT35 240015Z AUTO 16007KT 10SM SCT048 BKN050 BKN090 22/15 A3003 RMK AO2 T02210148
KT35 232355Z AUTO 17009KT 10SM OVC050 22/15 A3003 RMK AO2 T02230150 10236 20220
KT35 232335Z AUTO 17007KT 10SM BKN048 BKN060 23/15 A3002 RMK AO2 T02250153
KT35 232315Z AUTO 17011G14KT 10SM SCT036 BKN046 OVC060 23/15 A3002 RMK AO2 T02250152
KT35 232255Z AUTO 16011G16KT 10SM BKN036 OVC046 23/16 A3002 RMK AO2 T02250155
KT35 232235Z AUTO 17007KT 10SM SCT036 OVC046 22/16 A3003 RMK AO2 T02200155
KT35 232215Z AUTO 17007KT 10SM SCT035 SCT041 OVC048 22/15 A3003 RMK AO2 T02200152
KT35 232155Z AUTO 17010G16KT 10SM BKN038 BKN046 OVC050 22/15 A3003 RMK AO2 T02220154
KT35 232135Z AUTO 16008KT 10SM SCT042 OVC050 22/15 A3003 RMK AO2 T02230152
KT35 232115Z AUTO 17012KT 10SM SCT035 BKN046 OVC060 22/15 A3004 RMK AO2 T02230152
KT35 232055Z AUTO 17009KT 10SM BKN035 BKN046 OVC060 23/15 A3005 RMK AO2 T02250151
KT35 232035Z AUTO 16010G14KT 10SM SCT032 BKN042 OVC060 23/16 A3005 RMK AO2 T02270156
KT35 232015Z AUTO 17010G17KT 10SM SCT031 BKN038 OVC044 23/15 A3006 RMK AO2 T02250154
KT35 231955Z AUTO 15009G16KT 10SM BKN033 BKN041 OVC070 23/16 A3006 RMK AO2 T02310155
KT35 231935Z AUTO 17012G19KT 10SM SCT030 BKN035 OVC070 23/15 A3007 RMK AO2 T02310154
KT35 231915Z AUTO 17012G16KT 10SM BKN030 OVC041 23/16 A3008 RMK AO2 T02320156
KT35 231855Z AUTO 18012KT 10SM BKN030 OVC039 23/15 A3009 RMK AO2 T02260154
KT35 231835Z AUTO 17010G14KT 10SM BKN028 BKN037 OVC070 23/16 A3009 RMK AO2 T02290159
KT35 231815Z AUTO 18014KT 10SM BKN026 BKN032 OVC065 23/16 A3010 RMK AO2 T02250157
KT35 231755Z AUTO 17010KT 10SM OVC028 22/16 A3011 RMK AO2 T02210156 10223 20150
KT35 231735Z AUTO 19010G14KT 10SM OVC026 22/16 A3011 RMK AO2 T02150155
KT35 231715Z AUTO 17010G15KT 10SM BKN024 OVC060 22/16 A3011 RMK AO2 LTG DSNT NE T02180155
KT35 231655Z AUTO 16012G16KT 10SM BKN024 BKN060 OVC095 22/16 A3011 RMK AO2 T02220156
KT35 231635Z AUTO 15010G15KT 10SM SCT022 BKN060 OVC095 22/16 A3011 RMK AO2 LTG DSNT NE T02150155
KT35 231615Z AUTO 16013G17KT 10SM SCT022 SCT060 OVC095 20/15 A3012 RMK AO2 T02020150
KT35 231555Z AUTO 16009G18KT 10SM SCT060 OVC095 20/15 A3011 RMK AO2 LTG DSNT NE T01990147
KT35 231535Z AUTO 16009KT 10SM BKN022 OVC060 19/15 A3012 RMK AO2 T01890146
KT35 231515Z AUTO 14006KT 10SM BKN024 OVC095 18/14 A3013 RMK AO2 LTG DSNT NE T01790141
KT35 231455Z AUTO 14006KT 10SM SCT065 OVC095 18/14 A3012 RMK AO2 LTG DSNT NE T01750138
KT35 231435Z AUTO 15007KT 10SM SCT022 SCT030 OVC065 17/14 A3012 RMK AO2 LTG DSNT NE T01700137
KT35 231415Z AUTO 15005KT 10SM OVC022 17/13 A3013 RMK AO2 LTG DSNT N T01650134
KT35 231355Z AUTO 15004KT 10SM BKN022 OVC060 17/13 A3012 RMK AO2 LTG DSNT N AND NE T01650134
KT35 231335Z AUTO 14005KT 10SM SCT022 BKN070 OVC090 16/13 A3011 RMK AO2 T01620131
KT35 231315Z AUTO 14006KT 10SM VCTS SCT028 BKN070 OVC080 16/13 A3010 RMK AO2 T01590130
KT35 231255Z AUTO 13005KT 10SM OVC080 16/13 A3009 RMK AO2 LTG DSNT N T01560130
KT35 231235Z AUTO 15005KT 10SM OVC070 16/13 A3009 RMK AO2 T01560130
KT35 231215Z AUTO 14004KT 10SM VCTS OVC070 15/13 A3009 RMK AO2 T01520128
KT35 231155Z AUTO 14003KT 10SM OVC070 15/13 A3008 RMK AO2 LTG DSNT N T01500127 10165 20148
KT35 231135Z AUTO 14005KT 10SM OVC070 15/12 A3007 RMK AO2 T01500124
KT35 231115Z AUTO 12005KT 10SM OVC070 15/12 A3006 RMK AO2 LTG DSNT N T01500122
KT35 231055Z AUTO 13003KT 10SM SCT060 OVC070 15/12 A3005 RMK AO2 T01510123
KT35 231035Z AUTO 14004KT 10SM SCT060 OVC070 15/12 A3005 RMK AO2 T01510121
KT35 231015Z AUTO 16003KT 10SM BKN070 15/12 A3005 RMK AO2 T01510120